createdAt,value
2019-06-25T00:00:36.453Z,37.20
2019-06-25T00:03:06.897Z,37.20
2019-06-25T00:05:37.240Z,37.20
2019-06-25T00:08:07.632Z,37.20
2019-06-25T00:10:38.463Z,37.10
2019-06-25T00:13:08.955Z,37.00
2019-06-25T00:15:39.744Z,37.10
2019-06-25T00:18:10.114Z,36.80
2019-06-25T00:20:41.256Z,37.10
2019-06-25T00:23:12.204Z,36.50
2019-06-25T00:25:43.003Z,37.10
2019-06-25T00:28:13.984Z,36.50
2019-06-25T00:30:45.764Z,37.00
2019-06-25T00:33:16.182Z,36.60
2019-06-25T00:35:46.854Z,36.40
2019-06-25T00:38:17.216Z,37.10
2019-06-25T00:40:47.562Z,37.10
2019-06-25T00:43:18.396Z,37.10
2019-06-25T00:45:49.424Z,37.10
2019-06-25T00:48:20.003Z,37.10
2019-06-25T00:50:50.389Z,37.10
2019-06-25T00:53:20.733Z,37.20
2019-06-25T00:55:51.449Z,37.10
2019-06-25T00:58:22.235Z,37.80
2019-06-25T01:00:52.868Z,38.00
2019-06-25T01:03:24.921Z,38.00
2019-06-25T01:05:55.306Z,38.20
2019-06-25T01:08:25.666Z,37.80
2019-06-25T01:10:56.024Z,38.10
2019-06-25T01:13:26.425Z,38.30
2019-06-25T01:15:56.867Z,38.40
2019-06-25T01:18:27.296Z,38.70
2019-06-25T01:20:57.965Z,38.60
2019-06-25T01:23:29.014Z,38.80
2019-06-25T01:25:59.453Z,39.00
2019-06-25T01:28:29.801Z,39.10
2019-06-25T01:31:00.506Z,39.00
2019-06-25T01:33:30.907Z,39.10
2019-06-25T01:36:01.299Z,39.30
2019-06-25T01:38:31.640Z,39.60
2019-06-25T01:41:02.031Z,39.90
2019-06-25T01:43:32.765Z,40.20
2019-06-25T01:46:03.515Z,40.60
2019-06-25T01:48:33.954Z,40.80
2019-06-25T01:51:04.632Z,41.10
2019-06-25T01:53:35.027Z,41.30
2019-06-25T01:56:05.445Z,41.40
2019-06-25T01:58:36.107Z,41.50
2019-06-25T02:01:07.127Z,41.50
2019-06-25T02:03:38.172Z,41.30
2019-06-25T02:06:09.292Z,41.70
2019-06-25T02:08:39.707Z,42.10
2019-06-25T02:11:10.086Z,42.40
2019-06-25T02:13:40.780Z,42.40
2019-06-25T02:16:11.705Z,42.70
2019-06-25T02:18:42.898Z,42.70
2019-06-25T02:21:13.607Z,42.90
2019-06-25T02:23:44.641Z,43.00
2019-06-25T02:26:15.692Z,43.20
2019-06-25T02:28:46.399Z,43.40
2019-06-25T02:31:16.767Z,43.90
2019-06-25T02:33:47.128Z,44.30
2019-06-25T02:36:17.536Z,44.10
2019-06-25T02:38:47.945Z,44.70
2019-06-25T02:41:18.467Z,45.10
2019-06-25T02:43:48.809Z,44.90
2019-06-25T02:46:19.199Z,45.80
2019-06-25T02:48:49.938Z,45.80
2019-06-25T02:51:20.912Z,46.20
2019-06-25T02:53:51.278Z,46.90
2019-06-25T02:56:21.921Z,46.70
2019-06-25T02:58:52.688Z,47.00
2019-06-25T03:01:29.310Z,47.60
2019-06-25T03:03:55.116Z,47.50
2019-06-25T03:06:25.800Z,47.70
2019-06-25T03:08:56.489Z,46.90
2019-06-25T03:11:27.008Z,46.30
2019-06-25T03:13:57.405Z,45.80
2019-06-25T03:16:27.786Z,45.80
2019-06-25T03:18:58.549Z,45.90
2019-06-25T03:21:29.733Z,45.90
2019-06-25T03:24:00.071Z,46.20
2019-06-25T03:26:30.725Z,46.80
2019-06-25T03:29:01.730Z,47.50
2019-06-25T03:32:01.296Z,47.40
2019-06-25T03:34:04.624Z,47.30
2019-06-25T03:36:34.977Z,46.70
2019-06-25T03:39:09.632Z,46.90
2019-06-25T03:41:41.095Z,47.00
2019-06-25T03:44:13.493Z,47.40
2019-06-25T03:46:45.573Z,46.80
2019-06-25T03:49:16.121Z,47.00
2019-06-25T03:51:46.510Z,47.00
2019-06-25T03:54:16.889Z,46.80
2019-06-25T03:56:47.302Z,46.80
2019-06-25T03:59:18.460Z,47.30
2019-06-25T04:01:48.797Z,47.30
2019-06-25T04:04:19.547Z,47.10
2019-06-25T04:06:49.901Z,47.20
2019-06-25T04:09:20.695Z,47.10
2019-06-25T04:11:52.791Z,46.90
2019-06-25T04:14:23.697Z,46.90
2019-06-25T04:16:54.072Z,46.30
2019-06-25T04:19:24.856Z,46.70
2019-06-25T04:22:14.678Z,46.50
2019-06-25T04:24:45.025Z,46.50
2019-06-25T04:27:15.617Z,46.60
2019-06-25T04:29:46.375Z,46.70
2019-06-25T04:32:31.929Z,45.60
2019-06-25T04:34:49.257Z,45.90
2019-06-25T04:37:20.126Z,45.70
2019-06-25T04:39:50.919Z,46.50
2019-06-25T04:42:21.413Z,46.30
2019-06-25T04:44:51.785Z,45.10
2019-06-25T04:47:22.494Z,44.60
2019-06-25T04:49:53.228Z,44.30
2019-06-25T04:52:24.300Z,44.20
2019-06-25T04:54:54.695Z,44.40
2019-06-25T04:57:25.038Z,43.50
2019-06-25T04:59:55.625Z,42.50
2019-06-25T05:02:26.265Z,42.90
2019-06-25T05:04:56.992Z,42.50
2019-06-25T05:07:27.786Z,42.80
2019-06-25T05:09:58.218Z,42.70
2019-06-25T05:12:28.961Z,42.60
2019-06-25T05:14:59.938Z,42.10
2019-06-25T05:17:30.305Z,41.90
2019-06-25T05:20:01.342Z,42.40
2019-06-25T05:22:32.399Z,41.60
2019-06-25T05:25:03.583Z,41.80
2019-06-25T05:27:34.277Z,42.10
2019-06-25T05:30:07.544Z,42.50
2019-06-25T05:32:38.005Z,42.20
2019-06-25T05:35:09.744Z,42.00
2019-06-25T05:37:41.772Z,41.70
2019-06-25T05:40:13.548Z,42.10
2019-06-25T05:42:43.947Z,41.30
2019-06-25T05:45:20.506Z,41.00
2019-06-25T05:47:51.125Z,41.10
2019-06-25T05:50:21.848Z,41.50
2019-06-25T05:52:52.645Z,41.10
2019-06-25T05:55:22.984Z,42.00
2019-06-25T05:57:53.627Z,40.30
2019-06-25T06:00:23.995Z,40.90
2019-06-25T06:02:54.735Z,39.40
2019-06-25T06:05:25.139Z,39.80
2019-06-25T06:07:55.532Z,39.10
2019-06-25T06:10:25.955Z,39.80
2019-06-25T06:12:56.281Z,39.30
2019-06-25T06:15:26.817Z,39.10
2019-06-25T06:18:02.479Z,38.10
2019-06-25T06:20:32.900Z,38.20
2019-06-25T06:23:24.193Z,37.40
2019-06-25T06:25:54.556Z,36.90
2019-06-25T06:28:37.227Z,37.00
2019-06-25T06:31:17.030Z,36.10
2019-06-25T06:33:40.065Z,35.90
2019-06-25T06:36:10.899Z,35.90
2019-06-25T06:38:42.042Z,35.50
2019-06-25T06:41:13.633Z,35.30
2019-06-25T06:43:44.400Z,34.70
2019-06-25T06:46:15.673Z,34.10
2019-06-25T06:48:46.102Z,33.90
2019-06-25T06:51:16.470Z,33.10
2019-06-25T06:53:46.871Z,32.90
2019-06-25T06:56:17.247Z,32.90
2019-06-25T06:58:48.061Z,33.70
2019-06-25T07:01:18.785Z,33.30
2019-06-25T07:03:53.410Z,33.40
2019-06-25T07:06:22.470Z,32.40
2019-06-25T07:08:53.166Z,32.10
2019-06-25T07:11:23.892Z,31.00
2019-06-25T07:13:54.706Z,31.20
2019-06-25T07:16:25.151Z,31.10
2019-06-25T07:18:55.529Z,29.60
2019-06-25T07:21:26.246Z,29.80
2019-06-25T07:23:56.664Z,29.70
2019-06-25T07:26:27.029Z,29.90
2019-06-25T07:28:57.488Z,28.70
2019-06-25T07:31:27.885Z,28.10
2019-06-25T07:34:08.828Z,28.90
2019-06-25T07:36:30.504Z,27.50
2019-06-25T07:39:00.869Z,28.10
2019-06-25T07:41:31.750Z,27.90
2019-06-25T07:44:02.506Z,27.70
2019-06-25T07:46:33.402Z,26.60
2019-06-25T07:49:03.793Z,26.30
2019-06-25T07:51:34.577Z,26.80
2019-06-25T07:54:05.217Z,26.50
2019-06-25T07:56:37.321Z,26.20
2019-06-25T07:59:08.487Z,26.10
2019-06-25T08:01:38.896Z,25.20
2019-06-25T08:04:24.227Z,25.50
2019-06-25T08:06:41.680Z,25.00
2019-06-25T08:09:12.796Z,24.50
2019-06-25T08:11:43.119Z,24.90
2019-06-25T08:14:13.586Z,24.40
2019-06-25T08:16:44.382Z,24.00
2019-06-25T08:19:14.768Z,24.70
2019-06-25T08:21:45.109Z,24.10
2019-06-25T08:24:15.950Z,24.20
2019-06-25T08:26:46.390Z,24.70
2019-06-25T08:29:16.777Z,24.30
2019-06-25T08:31:47.433Z,24.30
2019-06-25T08:34:17.810Z,24.30
2019-06-25T08:36:48.210Z,24.40
2019-06-25T08:39:38.046Z,24.40
2019-06-25T08:42:09.196Z,24.10
2019-06-25T08:44:39.670Z,24.50
2019-06-25T08:47:10.392Z,23.80
2019-06-25T08:49:41.038Z,23.30
2019-06-25T08:52:11.797Z,23.60
2019-06-25T08:54:42.581Z,23.50
2019-06-25T08:57:12.948Z,23.60
2019-06-25T08:59:43.704Z,24.20
2019-06-25T09:02:14.072Z,24.00
2019-06-25T09:04:57.470Z,23.10
2019-06-25T09:07:16.832Z,23.30
2019-06-25T09:09:47.791Z,23.40
2019-06-25T09:12:18.280Z,23.00
2019-06-25T09:14:49.305Z,23.20
2019-06-25T09:17:19.698Z,23.10
2019-06-25T09:19:50.906Z,22.50
2019-06-25T09:22:21.418Z,22.40
2019-06-25T09:24:52.411Z,22.60
2019-06-25T09:27:23.628Z,22.00
2019-06-25T09:29:54.300Z,22.30
2019-06-25T09:32:24.651Z,23.10
2019-06-25T09:34:55.826Z,22.30
2019-06-25T09:37:26.260Z,22.30
2019-06-25T09:39:58.356Z,25.10
2019-06-25T09:42:25.941Z,25.10
2019-06-25T09:44:55.279Z,25.00
2019-06-25T09:47:26.429Z,24.80
2019-06-25T09:49:57.103Z,25.00
2019-06-25T09:52:27.844Z,25.00
2019-06-25T09:54:58.641Z,25.50
2019-06-25T09:57:29.038Z,31.60
2019-06-25T10:00:00.213Z,25.50
2019-06-25T10:02:30.552Z,25.40
2019-06-25T10:05:01.160Z,24.80
2019-06-25T10:07:31.518Z,24.20
2019-06-25T10:10:01.948Z,23.20
2019-06-25T10:12:32.778Z,22.90
2019-06-25T10:15:03.691Z,23.10
2019-06-25T10:17:34.342Z,22.00
2019-06-25T10:20:07.110Z,22.50
2019-06-25T10:22:37.499Z,22.00
2019-06-25T10:25:08.214Z,21.60
2019-06-25T10:27:39.148Z,21.60
2019-06-25T10:30:09.553Z,21.80
2019-06-25T10:32:40.812Z,22.10
2019-06-25T10:35:11.238Z,21.90
2019-06-25T10:37:41.954Z,21.20
2019-06-25T10:40:12.865Z,21.10
2019-06-25T10:42:43.269Z,20.00
2019-06-25T10:45:13.641Z,20.10
2019-06-25T10:47:44.431Z,21.20
2019-06-25T10:50:16.713Z,19.20
2019-06-25T10:52:47.459Z,19.20
2019-06-25T10:55:18.028Z,18.30
2019-06-25T10:57:48.352Z,19.00
2019-06-25T11:00:32.982Z,19.10
2019-06-25T11:03:03.814Z,19.30
2019-06-25T11:05:34.191Z,19.60
2019-06-25T11:08:04.980Z,19.10
2019-06-25T11:10:35.673Z,19.30
2019-06-25T11:13:06.454Z,19.90
2019-06-25T11:15:36.846Z,20.90
2019-06-25T11:18:09.673Z,20.90
2019-06-25T11:20:40.078Z,19.50
2019-06-25T11:23:10.444Z,19.50
2019-06-25T11:25:40.841Z,19.50
2019-06-25T11:28:20.595Z,20.10
2019-06-25T11:30:51.431Z,19.60
2019-06-25T11:33:22.139Z,21.40
2019-06-25T11:35:52.461Z,19.60
2019-06-25T11:38:22.966Z,19.20
2019-06-25T11:40:53.425Z,19.20
2019-06-25T11:43:24.208Z,20.60
2019-06-25T11:45:54.548Z,19.90
2019-06-25T11:48:25.312Z,19.70
2019-06-25T11:50:55.667Z,19.70
2019-06-25T11:53:26.462Z,19.10
2019-06-25T11:55:56.781Z,19.20
2019-06-25T11:58:27.148Z,19.50
2019-06-25T12:00:57.535Z,18.90
2019-06-25T12:03:28.433Z,18.40
2019-06-25T12:05:58.861Z,18.40
2019-06-25T12:08:29.521Z,18.40
2019-06-25T12:10:59.888Z,18.20
2019-06-25T12:13:30.297Z,18.10
2019-06-25T12:16:00.699Z,18.50
2019-06-25T12:18:31.434Z,18.10
2019-06-25T12:21:02.669Z,18.60
2019-06-25T12:23:33.725Z,18.60
2019-06-25T12:26:04.780Z,18.70
2019-06-25T12:28:35.447Z,18.20
2019-06-25T12:31:06.558Z,18.70
2019-06-25T12:33:37.320Z,18.60
2019-06-25T12:36:07.733Z,19.40
2019-06-25T12:38:38.414Z,18.30
2019-06-25T12:41:08.783Z,18.40
2019-06-25T12:43:39.258Z,19.10
2019-06-25T12:46:09.695Z,18.40
2019-06-25T12:48:40.080Z,18.40
2019-06-25T12:51:14.159Z,18.40
2019-06-25T12:53:42.550Z,18.30
2019-06-25T12:56:13.161Z,18.90
2019-06-25T12:58:43.524Z,18.70
2019-06-25T13:01:15.143Z,20.10
2019-06-25T13:03:45.916Z,18.80
2019-06-25T13:06:16.251Z,18.40
2019-06-25T13:08:47.088Z,18.40
2019-06-25T13:11:17.443Z,18.40
2019-06-25T13:13:48.220Z,18.40
2019-06-25T13:16:18.808Z,18.40
2019-06-25T13:18:49.490Z,18.50
2019-06-25T13:21:19.856Z,18.50
2019-06-25T13:23:50.282Z,18.50
2019-06-25T13:26:20.652Z,18.50
2019-06-25T13:28:51.273Z,18.70
2019-06-25T13:31:22.127Z,19.90
2019-06-25T13:33:52.873Z,18.50
2019-06-25T13:36:23.237Z,18.50
2019-06-25T13:38:54.020Z,18.60
2019-06-25T13:41:25.616Z,18.80
2019-06-25T13:43:56.650Z,18.70
2019-06-25T13:46:27.806Z,19.20
2019-06-25T13:48:58.262Z,18.50
2019-06-25T13:51:28.648Z,19.10
2019-06-25T13:53:59.406Z,19.30
2019-06-25T13:56:33.887Z,19.20
2019-06-25T13:59:03.037Z,19.10
2019-06-25T14:01:33.738Z,19.50
2019-06-25T14:04:04.266Z,19.40
2019-06-25T14:06:34.785Z,19.30
2019-06-25T14:09:09.172Z,19.50
2019-06-25T14:11:39.548Z,20.80
2019-06-25T14:14:10.372Z,20.10
2019-06-25T14:16:41.047Z,20.00
2019-06-25T14:19:11.787Z,20.10
2019-06-25T14:21:42.506Z,20.10
2019-06-25T14:24:13.552Z,19.90
2019-06-25T14:26:44.793Z,20.30
2019-06-25T14:29:15.539Z,18.70
2019-06-25T14:31:46.284Z,18.60
2019-06-25T14:34:16.696Z,19.50
2019-06-25T14:36:47.198Z,18.70
2019-06-25T14:39:17.585Z,18.70
2019-06-25T14:41:47.974Z,18.80
2019-06-25T14:44:18.714Z,18.80
2019-06-25T14:46:49.063Z,18.90
2019-06-25T14:49:19.731Z,18.00
2019-06-25T14:51:50.583Z,19.40
2019-06-25T14:54:21.075Z,17.90
2019-06-25T14:56:52.099Z,18.80
2019-06-25T14:59:23.180Z,18.10
2019-06-25T15:01:53.970Z,17.60
2019-06-25T15:04:24.703Z,18.10
2019-06-25T15:06:55.144Z,18.10
2019-06-25T15:09:25.538Z,18.20
2019-06-25T15:11:56.533Z,18.10
2019-06-25T15:14:26.968Z,17.30
2019-06-25T15:16:58.005Z,17.10
2019-06-25T15:19:28.756Z,17.20
2019-06-25T15:21:59.384Z,16.70
2019-06-25T15:24:29.798Z,17.70
2019-06-25T15:27:03.068Z,17.80
2019-06-25T15:29:32.252Z,17.50
2019-06-25T15:32:02.905Z,17.90
2019-06-25T15:34:33.688Z,18.50
2019-06-25T15:37:04.154Z,17.90
2019-06-25T15:39:35.237Z,17.60
2019-06-25T15:42:05.601Z,17.40
2019-06-25T15:44:36.215Z,17.70
2019-06-25T15:47:09.842Z,17.00
2019-06-25T15:49:40.207Z,17.70
2019-06-25T15:52:10.817Z,17.00
2019-06-25T15:54:41.203Z,16.60
2019-06-25T15:57:11.566Z,17.20
2019-06-25T15:59:41.926Z,17.50
2019-06-25T16:02:13.082Z,17.10
2019-06-25T16:04:43.825Z,16.90
2019-06-25T16:07:14.714Z,17.20
2019-06-25T16:09:46.010Z,16.90
2019-06-25T16:12:16.408Z,17.10
2019-06-25T16:14:47.491Z,16.80
2019-06-25T16:17:17.859Z,17.10
2019-06-25T16:19:48.251Z,16.70
2019-06-25T16:22:18.889Z,15.30
2019-06-25T16:24:49.621Z,14.50
2019-06-25T16:27:19.990Z,15.40
2019-06-25T16:29:50.974Z,14.00
2019-06-25T16:32:21.370Z,14.00
2019-06-25T16:34:52.171Z,14.10
2019-06-25T16:37:22.777Z,13.90
2019-06-25T16:39:53.615Z,14.00
2019-06-25T16:42:24.077Z,14.40
2019-06-25T16:44:54.433Z,14.40
2019-06-25T16:47:24.830Z,14.70
2019-06-25T16:49:55.546Z,15.30
2019-06-25T16:52:25.911Z,14.70
2019-06-25T16:54:56.320Z,15.00
2019-06-25T16:57:26.722Z,14.50
2019-06-25T16:59:57.675Z,14.00
2019-06-25T17:02:33.915Z,13.70
2019-06-25T17:05:00.374Z,13.00
2019-06-25T17:07:30.762Z,13.20
2019-06-25T17:10:01.491Z,13.30
2019-06-25T17:12:32.180Z,13.00
2019-06-25T17:15:02.692Z,13.40
2019-06-25T17:17:33.462Z,13.90
2019-06-25T17:20:07.150Z,13.30
2019-06-25T17:22:37.898Z,13.10
2019-06-25T17:25:08.261Z,12.60
2019-06-25T17:27:49.282Z,12.60
2019-06-25T17:30:11.563Z,12.70
2019-06-25T17:32:42.302Z,13.10
2019-06-25T17:35:13.255Z,13.00
2019-06-25T17:37:44.042Z,13.20
2019-06-25T17:40:14.408Z,13.00
2019-06-25T17:42:44.803Z,12.40
2019-06-25T17:45:15.204Z,13.00
2019-06-25T17:47:45.873Z,12.60
2019-06-25T17:50:17.143Z,13.50
2019-06-25T17:52:47.556Z,12.80
2019-06-25T17:55:18.938Z,12.80
2019-06-25T17:57:49.305Z,12.90
2019-06-25T18:00:20.456Z,13.40
2019-06-25T18:02:50.875Z,13.80
2019-06-25T18:05:22.947Z,14.20
2019-06-25T18:07:53.611Z,14.30
2019-06-25T18:10:23.927Z,14.60
2019-06-25T18:12:54.671Z,14.40
2019-06-25T18:15:25.409Z,14.60
2019-06-25T18:17:56.314Z,14.80
2019-06-25T18:20:27.073Z,14.90
2019-06-25T18:22:58.494Z,15.20
2019-06-25T18:25:28.866Z,15.70
2019-06-25T18:27:59.494Z,15.60
2019-06-25T18:30:30.163Z,16.10
2019-06-25T18:33:00.756Z,16.30
2019-06-25T18:35:31.130Z,16.80
2019-06-25T18:38:02.093Z,17.00
2019-06-25T18:40:32.802Z,17.20
2019-06-25T18:43:03.152Z,17.10
2019-06-25T18:45:33.966Z,17.40
2019-06-25T18:48:04.796Z,17.50
2019-06-25T18:50:35.575Z,18.20
2019-06-25T18:53:06.369Z,19.00
2019-06-25T18:55:37.085Z,18.90
2019-06-25T18:58:07.694Z,19.20
2019-06-25T19:00:38.465Z,19.50
2019-06-25T19:03:08.830Z,20.00
2019-06-25T19:05:39.949Z,20.00
2019-06-25T19:08:10.654Z,20.50
2019-06-25T19:10:41.257Z,20.90
2019-06-25T19:13:31.137Z,21.10
2019-06-25T19:16:01.925Z,22.00
2019-06-25T19:18:32.264Z,22.50
2019-06-25T19:21:03.293Z,22.40
2019-06-25T19:23:33.667Z,22.30
2019-06-25T19:26:07.171Z,22.40
2019-06-25T19:28:36.810Z,22.70
2019-06-25T19:31:07.453Z,23.60
2019-06-25T19:33:37.836Z,25.40
2019-06-25T19:36:08.472Z,25.40
2019-06-25T19:38:38.870Z,28.10
2019-06-25T19:41:09.295Z,27.70
2019-06-25T19:43:39.738Z,29.00
2019-06-25T19:46:10.125Z,28.40
2019-06-25T19:48:40.662Z,28.20
2019-06-25T19:51:11.074Z,28.50
2019-06-25T19:53:41.450Z,28.60
2019-06-25T19:56:12.560Z,27.80
2019-06-25T19:58:42.954Z,28.90
2019-06-25T20:01:13.325Z,29.80
2019-06-25T20:03:44.355Z,28.90
2019-06-25T20:06:15.214Z,28.10
2019-06-25T20:08:45.539Z,29.60
2019-06-25T20:11:16.386Z,31.10
2019-06-25T20:13:46.780Z,34.20
2019-06-25T20:16:17.554Z,34.40
2019-06-25T20:18:48.208Z,35.20
2019-06-25T20:21:19.046Z,36.10
2019-06-25T20:23:49.435Z,37.00
2019-06-25T20:26:19.881Z,37.10
2019-06-25T20:28:50.257Z,36.70
2019-06-25T20:31:21.521Z,38.40
2019-06-25T20:33:51.917Z,38.40
2019-06-25T20:36:22.301Z,39.50
2019-06-25T20:38:52.685Z,39.10
2019-06-25T20:41:28.341Z,39.90
2019-06-25T20:43:55.146Z,40.00
2019-06-25T20:46:25.825Z,40.00
2019-06-25T20:48:56.499Z,40.40
2019-06-25T20:51:26.884Z,40.40
2019-06-25T20:53:57.252Z,40.20
2019-06-25T20:56:28.012Z,40.80
2019-06-25T20:58:58.939Z,40.90
2019-06-25T21:01:29.767Z,41.10
2019-06-25T21:04:00.490Z,41.60
2019-06-25T21:06:31.567Z,41.10
2019-06-25T21:09:02.743Z,41.60
2019-06-25T21:11:47.489Z,41.90
2019-06-25T21:14:05.814Z,41.80
2019-06-25T21:16:36.598Z,42.00
2019-06-25T21:19:07.111Z,40.90
2019-06-25T21:21:37.451Z,40.30
2019-06-25T21:24:09.466Z,40.00
2019-06-25T21:26:40.525Z,40.10
2019-06-25T21:29:11.236Z,40.20
2019-06-25T21:31:41.865Z,41.70
2019-06-25T21:34:12.269Z,40.70
2019-06-25T21:36:43.004Z,41.50
2019-06-25T21:39:13.395Z,41.00
2019-06-25T21:41:44.152Z,41.60
2019-06-25T21:44:14.913Z,40.40
2019-06-25T21:46:45.505Z,41.00
2019-06-25T21:49:16.316Z,41.00
2019-06-25T21:51:47.783Z,42.20
2019-06-25T21:54:18.160Z,42.60
2019-06-25T21:56:48.542Z,42.30
2019-06-25T21:59:19.283Z,42.80
2019-06-25T22:01:51.322Z,42.60
2019-06-25T22:04:21.669Z,42.70
2019-06-25T22:06:52.382Z,42.30
2019-06-25T22:09:22.789Z,42.80
2019-06-25T22:11:53.476Z,42.60
2019-06-25T22:14:23.847Z,42.90
2019-06-25T22:16:54.971Z,44.30
2019-06-25T22:19:25.620Z,44.00
2019-06-25T22:21:56.259Z,44.00
2019-06-25T22:24:27.243Z,44.10
2019-06-25T22:26:57.647Z,44.10
2019-06-25T22:29:28.045Z,44.90
2019-06-25T22:31:58.987Z,44.90
2019-06-25T22:34:29.369Z,44.20
2019-06-25T22:36:59.722Z,44.50
2019-06-25T22:39:30.428Z,44.90
2019-06-25T22:42:00.777Z,45.30
2019-06-25T22:44:31.188Z,44.80
2019-06-25T22:47:01.536Z,45.40
2019-06-25T22:49:32.183Z,45.10
2019-06-25T22:52:03.039Z,45.30
2019-06-25T22:54:33.641Z,45.00
2019-06-25T22:57:04.705Z,45.90
2019-06-25T22:59:35.415Z,46.00
2019-06-25T23:02:05.831Z,45.20
2019-06-25T23:04:36.212Z,45.60
2019-06-25T23:07:06.621Z,46.10
2019-06-25T23:09:37.218Z,46.60
2019-06-25T23:12:07.963Z,45.30
2019-06-25T23:14:38.699Z,44.40
2019-06-25T23:17:09.658Z,44.00
2019-06-25T23:19:41.438Z,44.50
2019-06-25T23:22:12.292Z,45.80
2019-06-25T23:24:42.635Z,46.10
2019-06-25T23:27:13.317Z,46.10
2019-06-25T23:29:43.670Z,45.20
2019-06-25T23:32:14.037Z,45.60
2019-06-25T23:34:44.857Z,45.40
2019-06-25T23:37:15.240Z,46.30
2019-06-25T23:39:45.705Z,46.10
2019-06-25T23:42:16.498Z,46.70
2019-06-25T23:44:46.878Z,46.60
2019-06-25T23:47:17.295Z,47.00
2019-06-25T23:49:47.878Z,47.00
2019-06-25T23:52:18.235Z,48.20
2019-06-25T23:54:48.613Z,48.10
2019-06-25T23:57:19.279Z,48.70
2019-06-25T23:59:49.870Z,48.70
